Time;durP1;ratioP1;P1;durP2;ratioP2;P2;SDS_P1;SDS_P2;PMS_P1;PMS_P2;Temp;Humidity;BMP_temperature;BMP_pressure;BME280_temperature;BME280_humidity;BME280_pressure;Samples;Min_cycle;Max_cycle;Signal;HPM_P1;HPM_P2
2023/05/19 00:01:06;;;;;;;3.70;1.00;;;14.50;99.90;;;;;;5069710;28;20307;-90
2023/05/19 00:03:39;;;;;;;1.50;0.90;;;14.70;99.90;;;;;;5063388;28;20196;-89
2023/05/19 00:06:14;;;;;;;4.07;0.90;;;14.80;99.90;;;;;;5075510;28;20195;-90
2023/05/19 00:08:48;;;;;;;3.05;0.98;;;15.00;99.90;;;;;;5075539;28;20194;-91
2023/05/19 00:11:23;;;;;;;1.88;1.05;;;15.00;99.90;;;;;;5074053;28;20207;-89
2023/05/19 00:13:56;;;;;;;2.65;0.95;;;15.00;99.90;;;;;;5074390;28;20195;-90
2023/05/19 00:16:28;;;;;;;2.85;1.00;;;15.10;99.90;;;;;;5074263;28;20192;-89
2023/05/19 00:19:01;;;;;;;3.17;1.10;;;15.10;99.90;;;;;;5075799;28;20204;-89
2023/05/19 00:21:36;;;;;;;3.08;1.20;;;15.10;99.90;;;;;;5073863;28;20224;-89
2023/05/19 00:24:10;;;;;;;3.08;1.10;;;15.20;99.90;;;;;;5073676;28;20328;-90
2023/05/19 00:26:42;;;;;;;2.72;1.30;;;15.20;99.90;;;;;;5073919;28;20295;-90
2023/05/19 00:29:17;;;;;;;1.63;1.00;;;15.20;99.90;;;;;;5071339;28;20667;-91
2023/05/19 00:31:49;;;;;;;3.00;1.00;;;15.20;99.90;;;;;;5073522;28;20730;-91
2023/05/19 00:34:23;;;;;;;3.03;1.17;;;15.30;99.90;;;;;;5060120;28;20207;-91
2023/05/19 00:36:56;;;;;;;2.75;1.30;;;15.40;99.90;;;;;;5073935;28;20206;-92
2023/05/19 00:39:28;;;;;;;1.30;0.80;;;15.40;99.90;;;;;;5074998;28;20196;-92
2023/05/19 00:42:02;;;;;;;1.42;0.80;;;15.40;99.90;;;;;;5074198;28;20737;-92
2023/05/19 00:44:35;;;;;;;1.85;0.80;;;15.50;99.90;;;;;;5074749;28;20223;-92
2023/05/19 00:47:07;;;;;;;3.80;0.90;;;15.70;99.90;;;;;;5072837;28;20192;-91
2023/05/19 00:49:38;;;;;;;2.90;0.98;;;15.70;99.90;;;;;;5077056;28;20275;-91
2023/05/19 00:52:13;;;;;;;3.40;1.20;;;15.80;99.90;;;;;;5074155;28;20210;-91
2023/05/19 00:54:45;;;;;;;3.33;1.10;;;15.80;99.90;;;;;;5074108;28;20227;-90
2023/05/19 00:57:17;;;;;;;2.10;0.70;;;16.00;99.90;;;;;;5074400;28;20204;-90
2023/05/19 00:59:49;;;;;;;2.58;1.00;;;16.10;99.90;;;;;;5073616;28;20192;-91
2023/05/19 01:02:20;;;;;;;3.30;1.00;;;16.20;99.90;;;;;;5073383;28;20202;-90
2023/05/19 01:04:55;;;;;;;3.83;1.33;;;16.30;99.90;;;;;;5074267;28;20207;-91
2023/05/19 01:07:30;;;;;;;3.35;1.05;;;16.30;99.90;;;;;;5074458;28;20215;-91
2023/05/19 01:10:04;;;;;;;2.55;1.00;;;16.40;99.90;;;;;;5074488;28;20211;-92
2023/05/19 01:12:36;;;;;;;2.92;0.75;;;16.40;99.90;;;;;;5073143;28;20211;-91
2023/05/19 01:15:09;;;;;;;3.22;1.00;;;16.50;99.90;;;;;;5074018;28;20204;-91
2023/05/19 01:17:48;;;;;;;1.52;1.10;;;16.50;99.90;;;;;;5075645;28;20735;-92
2023/05/19 01:20:24;;;;;;;2.53;0.90;;;16.70;99.90;;;;;;5079349;28;20574;-90
2023/05/19 01:23:26;;;;;;;1.60;0.80;;;16.70;99.90;;;;;;5081404;28;20199;-90
2023/05/19 01:26:34;;;;;;;2.47;1.20;;;16.60;99.90;;;;;;5072060;28;20283;-90
2023/05/19 01:29:24;;;;;;;1.80;0.85;;;16.60;99.90;;;;;;5076102;28;20187;-88
2023/05/19 01:32:00;;;;;;;1.95;0.85;;;16.70;99.90;;;;;;5069434;28;20204;-90
2023/05/19 01:34:35;;;;;;;1.40;0.90;;;16.80;99.90;;;;;;5077432;28;20196;-91
2023/05/19 01:37:07;;;;;;;1.88;1.00;;;16.90;99.90;;;;;;5073357;28;20225;-91
2023/05/19 01:39:40;;;;;;;2.35;0.60;;;16.90;99.90;;;;;;5075163;28;20192;-92
2023/05/19 01:42:12;;;;;;;1.73;0.70;;;16.90;99.90;;;;;;5069808;28;20310;-92
2023/05/19 01:44:45;;;;;;;1.23;0.52;;;17.10;99.90;;;;;;5068402;28;20192;-91
2023/05/19 01:47:21;;;;;;;2.95;0.65;;;17.20;99.90;;;;;;5067434;28;20208;-91
2023/05/19 01:49:54;;;;;;;1.08;0.55;;;17.30;98.90;;;;;;5075902;28;20208;-90
2023/05/19 01:52:25;;;;;;;1.33;0.85;;;17.30;98.40;;;;;;5085669;28;20200;-87
2023/05/19 01:54:57;;;;;;;0.70;0.50;;;17.30;97.80;;;;;;5078827;28;20226;-88
2023/05/19 01:57:39;;;;;;;1.73;1.08;;;17.40;97.20;;;;;;5071432;28;20212;-90
2023/05/19 02:00:18;;;;;;;1.13;0.80;;;17.40;97.70;;;;;;5071715;28;20196;-90
2023/05/19 02:03:01;;;;;;;2.05;1.38;;;17.40;98.90;;;;;;5072334;28;20192;-91
2023/05/19 02:05:41;;;;;;;3.25;1.50;;;17.60;98.60;;;;;;5053628;28;20196;-91
2023/05/19 02:08:22;;;;;;;1.35;1.00;;;17.50;98.00;;;;;;5060806;28;20200;-90
2023/05/19 02:10:58;;;;;;;3.75;1.00;;;17.50;98.40;;;;;;5078631;28;20179;-93
2023/05/19 02:13:36;;;;;;;0.80;0.45;;;17.60;99.30;;;;;;5056359;28;20203;-89
2023/05/19 02:16:09;;;;;;;1.23;0.85;;;17.70;98.60;;;;;;5066763;28;20207;-91
2023/05/19 02:18:46;;;;;;;1.80;0.93;;;17.80;95.20;;;;;;5074134;28;20204;-91
2023/05/19 02:21:18;;;;;;;1.17;0.70;;;17.90;95.30;;;;;;5073819;28;20231;-90
2023/05/19 02:23:50;;;;;;;2.50;0.88;;;17.90;95.20;;;;;;5078807;28;20658;-90
2023/05/19 02:26:22;;;;;;;1.52;0.77;;;17.70;94.80;;;;;;5072563;28;20236;-91
2023/05/19 02:28:53;;;;;;;3.00;1.33;;;17.70;95.80;;;;;;5070463;28;20202;-90
2023/05/19 02:31:27;;;;;;;2.15;1.35;;;17.90;95.10;;;;;;5070195;28;20202;-90
2023/05/19 02:34:03;;;;;;;0.82;0.75;;;17.90;94.50;;;;;;5058165;28;20578;-91
2023/05/19 02:36:39;;;;;;;2.63;0.60;;;18.00;95.30;;;;;;5066666;28;20207;-89
2023/05/19 02:39:11;;;;;;;1.67;1.00;;;17.90;93.30;;;;;;5066888;28;20203;-90
2023/05/19 02:41:42;;;;;;;0.95;0.52;;;17.80;94.10;;;;;;5074232;28;20216;-91
2023/05/19 02:44:14;;;;;;;1.88;0.85;;;17.90;95.10;;;;;;5072420;28;20257;-89
2023/05/19 02:46:46;;;;;;;1.48;0.65;;;17.90;93.20;;;;;;5072722;28;20278;-90
2023/05/19 02:49:19;;;;;;;2.00;0.93;;;18.00;92.20;;;;;;5072699;28;20188;-90
2023/05/19 02:51:50;;;;;;;2.20;1.00;;;18.10;92.00;;;;;;5073433;28;20643;-90
2023/05/19 02:54:22;;;;;;;2.15;1.00;;;18.10;91.30;;;;;;5074370;28;20592;-91
2023/05/19 02:56:53;;;;;;;0.70;0.70;;;18.10;91.40;;;;;;5072552;28;20200;-89
2023/05/19 02:59:24;;;;;;;3.53;0.63;;;18.10;91.40;;;;;;5091686;28;20305;-88
2023/05/19 03:01:58;;;;;;;1.98;0.73;;;18.20;92.50;;;;;;5090912;28;20220;-88
2023/05/19 03:04:32;;;;;;;1.20;0.60;;;18.20;92.10;;;;;;5067480;28;20207;-90
2023/05/19 03:07:04;;;;;;;1.45;0.73;;;18.30;92.60;;;;;;5071464;28;20199;-91
2023/05/19 03:09:36;;;;;;;1.10;0.45;;;18.40;93.20;;;;;;5072485;28;20202;-91
2023/05/19 03:12:07;;;;;;;0.98;0.70;;;18.30;92.20;;;;;;5071862;28;20200;-91
2023/05/19 03:14:39;;;;;;;1.85;0.60;;;18.30;92.40;;;;;;5071112;28;20208;-91
2023/05/19 03:17:12;;;;;;;4.40;1.40;;;18.40;93.20;;;;;;5070777;28;20192;-91
2023/05/19 03:19:46;;;;;;;3.50;1.40;;;18.40;91.20;;;;;;5071948;28;20647;-91
2023/05/19 03:22:19;;;;;;;1.20;0.85;;;18.30;91.30;;;;;;5072613;28;20269;-91
2023/05/19 03:24:53;;;;;;;1.60;0.57;;;18.30;92.00;;;;;;5077031;28;20200;-91
2023/05/19 03:27:24;;;;;;;2.63;0.60;;;18.50;93.30;;;;;;5067940;28;20228;-90
2023/05/19 03:29:56;;;;;;;1.08;0.60;;;18.50;93.80;;;;;;5060983;28;20207;-91
2023/05/19 03:32:27;;;;;;;1.83;0.52;;;18.50;92.30;;;;;;5077162;28;20195;-92
2023/05/19 03:35:01;;;;;;;2.45;0.55;;;18.50;91.90;;;;;;5077321;28;20191;-90
2023/05/19 03:37:33;;;;;;;0.40;0.40;;;18.50;92.00;;;;;;5080941;28;20207;-90
2023/05/19 03:40:04;;;;;;;1.02;0.60;;;18.60;91.60;;;;;;5076233;28;20189;-91
2023/05/19 03:42:35;;;;;;;1.42;0.50;;;18.50;91.00;;;;;;5075292;28;20658;-90
2023/05/19 03:45:08;;;;;;;1.73;0.70;;;18.60;91.70;;;;;;5075187;28;20192;-90
2023/05/19 03:47:40;;;;;;;0.47;0.40;;;18.70;91.00;;;;;;5058817;28;20204;-92
2023/05/19 03:50:15;;;;;;;3.92;0.65;;;18.70;90.00;;;;;;5056787;28;20196;-92
2023/05/19 03:52:48;;;;;;;1.35;0.90;;;18.60;90.10;;;;;;5060632;28;20200;-91
2023/05/19 03:55:21;;;;;;;1.10;0.50;;;18.60;84.50;;;;;;5090871;28;20196;-92
2023/05/19 03:57:53;;;;;;;0.98;0.57;;;18.60;85.30;;;;;;5085554;28;20203;-91
2023/05/19 04:00:25;;;;;;;1.73;0.90;;;18.70;79.70;;;;;;5075252;28;20207;-91
2023/05/19 04:02:57;;;;;;;2.63;1.38;;;18.60;78.10;;;;;;5077008;28;20745;-92
2023/05/19 04:05:32;;;;;;;3.88;1.00;;;18.70;78.50;;;;;;5076765;28;20203;-91
2023/05/19 04:08:06;;;;;;;1.17;0.70;;;18.70;75.30;;;;;;5075527;28;20206;-91
2023/05/19 04:10:38;;;;;;;1.33;0.80;;;18.60;73.20;;;;;;5075765;28;20200;-89
2023/05/19 04:13:09;;;;;;;2.13;0.90;;;18.60;71.90;;;;;;5081879;28;20207;-91
2023/05/19 04:15:41;;;;;;;3.17;0.70;;;18.60;72.40;;;;;;5074658;28;20196;-91
2023/05/19 04:18:12;;;;;;;2.28;0.80;;;18.50;73.20;;;;;;5056083;28;20576;-91
2023/05/19 04:20:46;;;;;;;2.28;0.90;;;18.50;71.00;;;;;;5060957;28;20192;-91
2023/05/19 04:23:22;;;;;;;1.40;0.70;;;18.50;72.30;;;;;;5059025;28;20222;-92
2023/05/19 04:25:53;;;;;;;0.95;0.63;;;18.50;71.70;;;;;;5055288;28;20212;-91
2023/05/19 04:28:25;;;;;;;0.73;0.60;;;18.60;72.00;;;;;;5066732;28;20208;-91
2023/05/19 04:30:57;;;;;;;0.85;0.50;;;18.50;71.20;;;;;;5073771;28;20250;-91
2023/05/19 04:33:29;;;;;;;2.88;0.90;;;18.50;71.10;;;;;;5066498;28;20208;-91
2023/05/19 04:36:07;;;;;;;3.63;2.60;;;18.60;70.80;;;;;;5073664;28;20214;-90
2023/05/19 04:38:40;;;;;;;2.28;1.30;;;18.60;70.80;;;;;;5074905;28;20537;-91
2023/05/19 04:41:12;;;;;;;0.52;0.50;;;18.60;71.10;;;;;;5072988;28;20196;-91
2023/05/19 04:43:43;;;;;;;1.85;0.50;;;18.60;72.20;;;;;;5074309;28;20215;-91
2023/05/19 04:46:15;;;;;;;2.55;0.82;;;18.70;73.30;;;;;;5073493;28;20192;-91
2023/05/19 04:48:46;;;;;;;1.17;0.63;;;18.70;75.10;;;;;;5073851;28;20215;-90
2023/05/19 04:51:22;;;;;;;0.65;0.50;;;18.70;73.80;;;;;;5074631;28;20200;-91
2023/05/19 04:53:56;;;;;;;1.05;0.60;;;18.70;73.50;;;;;;5076390;28;20582;-91
2023/05/19 04:56:28;;;;;;;0.77;0.60;;;18.80;71.50;;;;;;5073728;28;20204;-91
2023/05/19 04:59:02;;;;;;;0.93;0.50;;;18.70;72.70;;;;;;5074172;28;20249;-90
2023/05/19 05:01:39;;;;;;;0.95;0.70;;;18.70;72.50;;;;;;5072389;28;20215;-90
2023/05/19 05:04:10;;;;;;;1.02;0.70;;;18.80;69.00;;;;;;5073955;28;20211;-91
2023/05/19 05:06:46;;;;;;;3.47;1.08;;;18.80;66.50;;;;;;5069745;28;20287;-91
2023/05/19 05:09:21;;;;;;;0.70;0.70;;;18.90;66.90;;;;;;5074032;28;20204;-91
2023/05/19 05:11:52;;;;;;;1.50;0.85;;;18.90;64.30;;;;;;5074420;28;20203;-90
2023/05/19 05:14:25;;;;;;;1.30;0.70;;;19.00;65.30;;;;;;5072892;28;20536;-90
2023/05/19 05:16:57;;;;;;;2.75;0.80;;;19.00;64.90;;;;;;5073142;28;20203;-90
2023/05/19 05:19:28;;;;;;;3.35;0.50;;;19.00;65.50;;;;;;5072311;28;20306;-90
2023/05/19 05:22:07;;;;;;;0.73;0.57;;;19.00;64.40;;;;;;5073941;28;20216;-91
2023/05/19 05:24:38;;;;;;;1.15;0.50;;;19.10;63.30;;;;;;5074665;28;20198;-90
2023/05/19 05:27:12;;;;;;;1.52;0.50;;;19.10;63.70;;;;;;5074693;28;20270;-91
2023/05/19 05:29:43;;;;;;;1.20;0.80;;;19.00;65.30;;;;;;5074889;28;20659;-92
2023/05/19 05:32:17;;;;;;;0.82;0.60;;;19.10;64.00;;;;;;5073022;28;20204;-88
2023/05/19 05:34:49;;;;;;;1.08;0.50;;;19.00;64.60;;;;;;5075995;28;20184;-91
2023/05/19 05:37:24;;;;;;;0.88;0.50;;;19.10;64.90;;;;;;5077054;28;20628;-91
2023/05/19 05:39:55;;;;;;;0.60;0.50;;;19.20;64.80;;;;;;5071110;28;20203;-90
2023/05/19 05:42:28;;;;;;;0.55;0.50;;;19.20;64.50;;;;;;5074310;28;20234;-89
2023/05/19 05:45:01;;;;;;;1.10;0.40;;;19.20;63.70;;;;;;5073704;28;20287;-91
2023/05/19 05:47:33;;;;;;;0.98;0.50;;;19.20;63.10;;;;;;5073755;28;20204;-91
2023/05/19 05:50:06;;;;;;;0.50;0.43;;;19.20;64.70;;;;;;5074259;28;20232;-90
2023/05/19 05:52:42;;;;;;;0.20;0.20;;;19.30;65.30;;;;;;5073418;28;20578;-90
2023/05/19 05:55:16;;;;;;;2.10;0.63;;;19.30;62.90;;;;;;5073369;28;20215;-90
2023/05/19 05:57:49;;;;;;;1.10;0.70;;;19.30;62.70;;;;;;5077639;28;20200;-91
2023/05/19 06:00:21;;;;;;;1.33;0.70;;;19.40;64.00;;;;;;5090605;28;20191;-92
2023/05/19 06:02:58;;;;;;;1.05;0.80;;;19.50;65.30;;;;;;5078278;28;20720;-90
2023/05/19 06:05:32;;;;;;;0.90;0.60;;;19.50;64.40;;;;;;5075931;28;20207;-89
2023/05/19 06:08:06;;;;;;;0.95;0.50;;;19.50;65.20;;;;;;5073531;28;20203;-90
2023/05/19 06:10:40;;;;;;;0.47;0.47;;;19.60;64.70;;;;;;5072425;28;20225;-91
2023/05/19 06:13:11;;;;;;;1.52;0.55;;;19.70;64.70;;;;;;5058168;28;20198;-91
2023/05/19 06:15:45;;;;;;;0.70;0.50;;;19.80;67.10;;;;;;5072340;28;20210;-91
2023/05/19 06:18:17;;;;;;;1.10;0.50;;;19.80;69.70;;;;;;5072691;28;20573;-90
2023/05/19 06:20:48;;;;;;;3.40;0.68;;;19.90;70.30;;;;;;5072237;28;20663;-90
2023/05/19 06:23:22;;;;;;;1.77;0.40;;;19.90;68.70;;;;;;5071532;28;20291;-91
2023/05/19 06:25:53;;;;;;;1.33;0.70;;;19.90;69.30;;;;;;5072377;28;20202;-90
2023/05/19 06:28:25;;;;;;;0.70;0.50;;;19.80;69.80;;;;;;5073074;28;20203;-91
2023/05/19 06:30:57;;;;;;;0.60;0.50;;;19.70;70.80;;;;;;5071294;28;20196;-91
2023/05/19 06:33:28;;;;;;;0.70;0.60;;;19.50;71.00;;;;;;5072459;28;20617;-91
2023/05/19 06:36:01;;;;;;;0.88;0.50;;;19.40;72.50;;;;;;5071850;28;20204;-90
2023/05/19 06:38:37;;;;;;;0.85;0.55;;;19.40;75.90;;;;;;5073024;28;20184;-91
2023/05/19 06:41:08;;;;;;;1.45;0.50;;;19.30;80.40;;;;;;5073046;28;20203;-90
2023/05/19 06:43:40;;;;;;;1.02;0.50;;;19.20;84.10;;;;;;5069138;28;20223;-90
2023/05/19 06:46:11;;;;;;;0.52;0.52;;;19.00;85.00;;;;;;5072276;28;20231;-91
2023/05/19 06:48:46;;;;;;;3.95;0.60;;;18.90;86.50;;;;;;5071943;28;20203;-91
2023/05/19 06:51:20;;;;;;;1.65;0.50;;;18.70;86.70;;;;;;5072418;28;20210;-90
2023/05/19 06:53:54;;;;;;;0.50;0.50;;;18.60;88.30;;;;;;5053394;28;20220;-90
2023/05/19 06:56:27;;;;;;;2.72;0.80;;;18.50;90.90;;;;;;5065473;28;20211;-89
2023/05/19 06:58:58;;;;;;;0.70;0.60;;;18.40;91.10;;;;;;5076578;28;20210;-89
2023/05/19 07:01:29;;;;;;;1.73;0.95;;;18.20;91.70;;;;;;5074407;28;20192;-90
2023/05/19 07:04:01;;;;;;;1.98;0.90;;;18.10;93.50;;;;;;5075470;28;20215;-90
2023/05/19 07:06:32;;;;;;;1.02;0.90;;;18.00;94.60;;;;;;5076602;28;20208;-90
2023/05/19 07:09:07;;;;;;;3.17;1.45;;;17.90;97.70;;;;;;5075905;28;20200;-90
2023/05/19 07:11:39;;;;;;;1.70;1.00;;;17.80;99.90;;;;;;5072762;28;20211;-90
2023/05/19 07:14:11;;;;;;;2.70;1.05;;;17.70;99.90;;;;;;5076237;28;20230;-90
2023/05/19 07:16:42;;;;;;;3.47;1.13;;;17.60;99.90;;;;;;5075627;28;20222;-91
2023/05/19 07:19:14;;;;;;;1.60;1.33;;;17.50;99.90;;;;;;5079723;28;20207;-91
2023/05/19 07:21:47;;;;;;;2.33;1.25;;;17.50;99.90;;;;;;5071272;28;20674;-91
2023/05/19 07:24:22;;;;;;;2.63;1.58;;;17.40;99.90;;;;;;5078401;28;20204;-91
2023/05/19 07:26:57;;;;;;;6.18;3.42;;;17.30;99.90;;;;;;5079353;28;20231;-91
2023/05/19 07:29:30;;;;;;;5.47;2.70;;;17.20;99.90;;;;;;5073911;28;20538;-90
2023/05/19 07:32:01;;;;;;;3.65;2.03;;;17.20;99.90;;;;;;5070893;28;20203;-90
2023/05/19 07:34:32;;;;;;;2.80;1.65;;;17.10;99.90;;;;;;5075429;28;20219;-91
2023/05/19 07:37:05;;;;;;;3.47;1.90;;;17.10;99.90;;;;;;5078786;28;20191;-91
2023/05/19 07:39:40;;;;;;;2.85;1.52;;;17.00;99.90;;;;;;5074287;28;20200;-91
2023/05/19 07:42:14;;;;;;;3.13;1.65;;;17.00;99.90;;;;;;5076554;28;20199;-90
2023/05/19 07:44:46;;;;;;;3.58;1.77;;;17.00;99.90;;;;;;5075780;28;20199;-89
2023/05/19 07:47:17;;;;;;;5.32;1.98;;;16.90;99.90;;;;;;5070026;28;20199;-89
2023/05/19 07:49:48;;;;;;;3.63;1.75;;;16.90;99.90;;;;;;5073011;28;20247;-87
2023/05/19 07:52:20;;;;;;;4.28;1.77;;;16.80;99.90;;;;;;5078470;28;20212;-86
2023/05/19 07:54:55;;;;;;;3.03;1.55;;;16.80;99.90;;;;;;5078695;28;20221;-91
2023/05/19 07:57:26;;;;;;;4.88;1.98;;;16.70;99.90;;;;;;5080280;28;20302;-91
2023/05/19 07:59:58;;;;;;;3.47;1.92;;;16.70;99.90;;;;;;5084095;28;21091;-90
2023/05/19 08:02:29;;;;;;;4.78;2.00;;;16.70;99.90;;;;;;5086036;28;20292;-91
2023/05/19 08:05:01;;;;;;;3.90;2.00;;;16.70;99.90;;;;;;5091707;28;20191;-90
2023/05/19 08:07:33;;;;;;;4.78;2.10;;;16.70;99.90;;;;;;5075476;28;20196;-90
2023/05/19 08:10:06;;;;;;;4.88;2.30;;;16.70;99.90;;;;;;5058646;28;20205;-91
2023/05/19 08:12:37;;;;;;;3.80;2.08;;;16.70;99.90;;;;;;5069654;28;20610;-91
2023/05/19 08:15:10;;;;;;;7.78;2.50;;;16.60;99.90;;;;;;5073762;28;20196;-91
2023/05/19 08:17:43;;;;;;;6.22;2.33;;;16.60;99.90;;;;;;5074301;28;20203;-90
2023/05/19 08:20:15;;;;;;;3.67;2.42;;;16.60;99.90;;;;;;5054738;28;20300;-89
2023/05/19 08:22:46;;;;;;;5.32;2.40;;;16.60;99.90;;;;;;5054653;28;20259;-91
2023/05/19 08:25:22;;;;;;;7.10;3.10;;;16.60;99.90;;;;;;5064738;28;20270;-90
2023/05/19 08:27:54;;;;;;;4.72;2.78;;;16.50;99.90;;;;;;5074421;28;20235;-90
2023/05/19 08:30:28;;;;;;;6.10;2.47;;;16.50;99.90;;;;;;5075829;28;20287;-89
2023/05/19 08:32:59;;;;;;;4.18;2.10;;;16.50;99.90;;;;;;5077714;28;20214;-89
2023/05/19 08:35:30;;;;;;;6.78;2.30;;;16.50;99.90;;;;;;5077427;28;20204;-90
2023/05/19 08:38:01;;;;;;;5.18;2.10;;;16.50;99.90;;;;;;5075669;28;20275;-88
2023/05/19 08:40:38;;;;;;;5.00;2.42;;;16.50;99.90;;;;;;5075701;28;20200;-90
2023/05/19 08:43:13;;;;;;;5.53;2.40;;;16.50;99.90;;;;;;5077118;28;20709;-91
2023/05/19 08:45:47;;;;;;;4.32;2.30;;;16.50;99.90;;;;;;5075196;28;20191;-90
2023/05/19 08:48:20;;;;;;;7.07;2.47;;;16.50;99.90;;;;;;5074821;28;20206;-89
2023/05/19 08:50:57;;;;;;;7.15;2.28;;;16.50;99.90;;;;;;5074477;28;20635;-90
2023/05/19 08:53:35;;;;;;;4.53;2.58;;;16.50;99.90;;;;;;5073865;28;20319;-89
2023/05/19 08:56:13;;;;;;;6.53;2.60;;;16.40;99.90;;;;;;5075147;28;20196;-90
2023/05/19 08:58:46;;;;;;;4.40;2.47;;;16.40;99.90;;;;;;5074201;28;20280;-88
2023/05/19 09:01:21;;;;;;;5.10;2.85;;;16.40;99.90;;;;;;5068189;28;20222;-88
2023/05/19 09:03:54;;;;;;;6.03;3.10;;;16.40;99.90;;;;;;5057862;28;20690;-91
2023/05/19 09:06:26;;;;;;;6.55;2.92;;;16.40;99.90;;;;;;5053411;28;20210;-89
2023/05/19 09:08:58;;;;;;;5.35;2.50;;;16.40;99.90;;;;;;5053817;28;20200;-89
2023/05/19 09:11:34;;;;;;;7.50;4.72;;;16.40;99.90;;;;;;5053633;28;20667;-89
2023/05/19 09:14:06;;;;;;;10.10;6.53;;;16.30;99.90;;;;;;5055794;28;20200;-91
2023/05/19 09:16:38;;;;;;;13.07;6.28;;;16.30;99.90;;;;;;5073735;28;20196;-88
2023/05/19 09:19:14;;;;;;;7.20;4.90;;;16.30;99.90;;;;;;5073346;28;20194;-89
2023/05/19 09:21:46;;;;;;;7.20;3.38;;;16.20;99.90;;;;;;5073327;28;20191;-91
2023/05/19 09:24:17;;;;;;;8.38;3.70;;;16.20;99.90;;;;;;5072244;28;20722;-90
2023/05/19 09:26:51;;;;;;;12.07;6.10;;;16.10;99.90;;;;;;5072771;28;20228;-89
2023/05/19 09:29:23;;;;;;;23.65;12.35;;;16.10;99.90;;;;;;5076137;28;20196;-90
2023/05/19 09:31:59;;;;;;;21.40;11.98;;;16.10;99.90;;;;;;5074307;28;20231;-90
2023/05/19 09:34:31;;;;;;;14.50;7.00;;;16.20;99.90;;;;;;5074480;28;20204;-90
2023/05/19 09:37:02;;;;;;;12.95;6.38;;;16.10;99.90;;;;;;5074457;28;20203;-90
2023/05/19 09:39:33;;;;;;;9.98;6.25;;;16.10;99.90;;;;;;5072996;28;20188;-90
2023/05/19 09:42:08;;;;;;;9.88;6.30;;;16.10;99.90;;;;;;5073458;28;20211;-89
2023/05/19 09:44:40;;;;;;;10.60;6.78;;;16.10;99.90;;;;;;5072641;28;20227;-91
2023/05/19 09:47:15;;;;;;;9.02;4.88;;;16.10;99.90;;;;;;5073768;28;20208;-91
2023/05/19 09:49:51;;;;;;;10.60;4.68;;;16.00;99.90;;;;;;5072347;28;20373;-90
2023/05/19 09:52:23;;;;;;;9.48;4.72;;;16.00;99.90;;;;;;5068921;28;20189;-91
2023/05/19 09:54:54;;;;;;;8.43;4.13;;;16.00;99.90;;;;;;5055308;28;20227;-92
2023/05/19 09:57:35;;;;;;;9.35;4.40;;;16.00;99.90;;;;;;5053648;28;20215;-90
2023/05/19 10:00:16;;;;;;;8.52;5.03;;;15.90;99.90;;;;;;5058979;28;20664;-89
2023/05/19 10:02:49;;;;;;;10.82;5.70;;;15.90;99.90;;;;;;5071053;28;20206;-89
2023/05/19 10:05:21;;;;;;;9.82;5.47;;;16.00;99.90;;;;;;5072068;28;20572;-86
2023/05/19 10:07:54;;;;;;;11.25;6.40;;;15.90;99.90;;;;;;5072002;28;20192;-86
2023/05/19 10:10:25;;;;;;;9.85;5.90;;;15.90;99.90;;;;;;5071824;28;20188;-89
2023/05/19 10:13:00;;;;;;;7.78;5.20;;;15.90;99.90;;;;;;5070836;28;20192;-89
2023/05/19 10:15:32;;;;;;;9.07;6.00;;;15.80;99.90;;;;;;5072264;28;20188;-89
2023/05/19 10:18:05;;;;;;;11.52;6.10;;;15.80;99.90;;;;;;5072172;28;20556;-90
2023/05/19 10:20:37;;;;;;;10.23;4.53;;;15.80;99.90;;;;;;5072550;28;20204;-90
2023/05/19 10:23:09;;;;;;;10.07;4.35;;;15.80;99.90;;;;;;5068245;28;20223;-91
2023/05/19 10:25:41;;;;;;;13.93;6.28;;;15.70;99.90;;;;;;5067082;28;20202;-88
2023/05/19 10:28:19;;;;;;;11.50;5.50;;;15.70;99.90;;;;;;5063538;28;20239;-89
2023/05/19 10:30:56;;;;;;;10.13;5.88;;;15.70;99.90;;;;;;5065595;28;20192;-90
2023/05/19 10:33:44;;;;;;;14.88;8.57;;;15.70;99.90;;;;;;5072305;28;20287;-91
2023/05/19 10:36:40;;;;;;;17.77;7.53;;;15.70;99.90;;;;;;5072372;28;20196;-90
2023/05/19 10:39:18;;;;;;;8.27;6.05;;;15.60;99.90;;;;;;5072011;28;20188;-89
2023/05/19 10:42:00;;;;;;;16.30;10.23;;;15.50;99.90;;;;;;5070971;28;20211;-89
2023/05/19 10:44:42;;;;;;;14.40;8.73;;;15.50;99.90;;;;;;5071282;28;20586;-90
2023/05/19 10:47:13;;;;;;;12.20;7.28;;;15.40;99.90;;;;;;5071724;28;20290;-88
2023/05/19 10:49:45;;;;;;;13.13;6.53;;;15.40;99.90;;;;;;5072020;28;20200;-89
2023/05/19 10:52:28;;;;;;;8.20;5.20;;;15.30;99.90;;;;;;5072628;28;20211;-88
2023/05/19 10:54:59;;;;;;;7.60;4.97;;;15.30;99.90;;;;;;5071891;28;20234;-90
2023/05/19 10:57:32;;;;;;;7.65;4.50;;;15.30;99.90;;;;;;5052088;28;20207;-89
2023/05/19 11:00:30;;;;;;;9.13;4.90;;;15.30;99.90;;;;;;5070141;28;20192;-90
2023/05/19 11:03:17;;;;;;;10.82;7.35;;;15.20;99.90;;;;;;5072316;28;20235;-91
2023/05/19 11:05:51;;;;;;;9.40;6.43;;;15.20;99.90;;;;;;5072767;28;20198;-91
2023/05/19 11:08:35;;;;;;;11.23;8.18;;;15.20;99.90;;;;;;5071224;28;20261;-92
2023/05/19 11:11:17;;;;;;;8.70;6.30;;;15.20;99.90;;;;;;5072975;28;20569;-90
2023/05/19 11:13:55;;;;;;;13.45;8.98;;;15.10;99.90;;;;;;5071225;28;20222;-90
2023/05/19 11:16:37;;;;;;;10.95;6.45;;;15.10;99.90;;;;;;5072017;28;20658;-90
2023/05/19 11:19:09;;;;;;;8.98;4.88;;;15.00;99.90;;;;;;5071428;28;20297;-90
2023/05/19 11:21:51;;;;;;;9.07;4.95;;;15.00;99.90;;;;;;5072279;28;20200;-89
2023/05/19 11:24:41;;;;;;;14.05;9.02;;;14.90;99.90;;;;;;5074365;28;20269;-89
2023/05/19 11:27:30;;;;;;;10.48;5.72;;;14.90;99.90;;;;;;5071795;28;20228;-90
2023/05/19 11:30:04;;;;;;;12.93;6.20;;;14.90;99.90;;;;;;5071707;28;20534;-91
2023/05/19 11:32:38;;;;;;;7.88;5.00;;;14.90;99.90;;;;;;5067179;28;20196;-89
2023/05/19 11:35:10;;;;;;;10.60;5.00;;;14.80;99.90;;;;;;5052246;28;20208;-90
2023/05/19 11:37:45;;;;;;;8.70;4.93;;;14.80;99.90;;;;;;5067903;28;20192;-91
2023/05/19 11:40:17;;;;;;;8.77;5.57;;;14.70;99.90;;;;;;5075411;28;20183;-91
2023/05/19 11:42:48;;;;;;;9.50;6.13;;;14.70;99.90;;;;;;5074794;28;20290;-91
2023/05/19 11:45:26;;;;;;;9.85;5.90;;;14.60;99.90;;;;;;5075613;28;20219;-92
2023/05/19 11:48:02;;;;;;;8.60;5.05;;;14.70;99.90;;;;;;5076196;28;20200;-91
2023/05/19 11:50:35;;;;;;;8.75;5.13;;;14.60;99.90;;;;;;5075607;28;20619;-89
2023/05/19 11:53:07;;;;;;;9.70;5.35;;;14.60;99.90;;;;;;5080530;28;20184;-93
2023/05/19 11:55:45;;;;;;;19.80;10.27;;;14.60;99.90;;;;;;5062270;28;20221;-92
2023/05/19 11:58:17;;;;;;;12.82;7.97;;;14.60;99.90;;;;;;5062985;28;20650;-92
2023/05/19 12:00:50;;;;;;;9.75;6.30;;;14.50;99.90;;;;;;5081174;28;20192;-90
2023/05/19 12:03:31;;;;;;;8.55;5.30;;;14.50;99.90;;;;;;5078574;28;20192;-91
2023/05/19 12:06:07;;;;;;;8.48;5.40;;;14.40;99.90;;;;;;5079366;28;20208;-90
2023/05/19 12:08:40;;;;;;;9.65;5.10;;;14.40;99.90;;;;;;5061752;28;20652;-90
2023/05/19 12:11:12;;;;;;;7.68;4.90;;;14.30;99.90;;;;;;5070101;28;20207;-90
2023/05/19 12:13:44;;;;;;;9.77;5.13;;;14.30;99.90;;;;;;5073786;28;20287;-90
2023/05/19 12:16:18;;;;;;;8.98;5.30;;;14.40;99.90;;;;;;5079132;28;20212;-90
2023/05/19 12:18:53;;;;;;;9.02;4.95;;;14.30;99.90;;;;;;5078224;28;20203;-90
2023/05/19 12:21:25;;;;;;;8.23;5.13;;;14.30;99.90;;;;;;5079665;28;20183;-91
2023/05/19 12:24:00;;;;;;;9.07;5.22;;;14.40;99.90;;;;;;5079065;28;20272;-90
2023/05/19 12:26:32;;;;;;;8.43;5.70;;;14.40;99.90;;;;;;5081008;28;20223;-92
2023/05/19 12:29:04;;;;;;;9.60;5.50;;;14.30;99.90;;;;;;5092627;28;20172;-89
2023/05/19 12:31:37;;;;;;;9.55;5.05;;;14.40;99.90;;;;;;5095763;28;20204;-89
2023/05/19 12:34:15;;;;;;;9.10;5.53;;;14.40;99.90;;;;;;5093969;28;20210;-91
2023/05/19 12:36:48;;;;;;;8.38;5.10;;;14.30;99.90;;;;;;5079078;28;20601;-91
2023/05/19 12:39:21;;;;;;;9.75;5.28;;;14.20;99.90;;;;;;5065151;28;20210;-91
2023/05/19 12:41:53;;;;;;;7.50;4.57;;;14.10;99.90;;;;;;5078580;28;20278;-89
2023/05/19 12:44:26;;;;;;;9.88;5.45;;;14.10;99.90;;;;;;5080203;28;20714;-90
2023/05/19 12:46:58;;;;;;;10.20;4.50;;;14.10;99.90;;;;;;5080124;28;20204;-91
2023/05/19 12:49:34;;;;;;;5.43;4.18;;;14.10;99.90;;;;;;5078367;28;20202;-90
2023/05/19 12:52:08;;;;;;;7.10;4.15;;;14.00;99.90;;;;;;5077001;28;20196;-90
2023/05/19 12:54:40;;;;;;;7.78;4.22;;;14.00;99.90;;;;;;5077196;28;20647;-91
2023/05/19 12:57:14;;;;;;;8.70;4.53;;;14.10;99.90;;;;;;5077664;28;20188;-91
2023/05/19 12:59:45;;;;;;;8.00;4.80;;;14.10;99.90;;;;;;5078287;28;20269;-90
2023/05/19 13:02:28;;;;;;;10.20;5.20;;;14.00;99.90;;;;;;5079635;28;20196;-91
2023/05/19 13:05:07;;;;;;;7.38;4.40;;;14.00;99.90;;;;;;5080624;28;20310;-90
2023/05/19 13:07:43;;;;;;;8.18;4.90;;;14.00;99.90;;;;;;5080538;28;20233;-90
2023/05/19 13:10:14;;;;;;;6.10;4.20;;;14.00;99.90;;;;;;5079048;28;20192;-91
2023/05/19 13:12:48;;;;;;;5.50;3.97;;;13.90;99.90;;;;;;5081041;28;20184;-91
2023/05/19 13:15:28;;;;;;;8.38;4.65;;;13.90;99.90;;;;;;5080156;28;20275;-90
2023/05/19 13:17:59;;;;;;;6.00;3.85;;;13.80;99.90;;;;;;5078925;28;20195;-90
2023/05/19 13:20:34;;;;;;;6.82;3.72;;;13.80;99.90;;;;;;5079323;28;20690;-89